createdAt,value
2019-05-05T00:59:14.677Z,0.83
2019-05-05T01:02:16.919Z,0.83
2019-05-05T01:05:06.646Z,0.88
2019-05-05T01:07:35.060Z,0.86
2019-05-05T01:10:04.936Z,0.82
2019-05-05T01:12:32.339Z,0.86
2019-05-05T01:14:59.729Z,0.91
2019-05-05T01:17:28.090Z,1.02
2019-05-05T01:20:03.471Z,1.02
2019-05-05T01:22:25.091Z,1.12
2019-05-05T01:24:52.450Z,1.34
2019-05-05T01:27:19.970Z,1.46
2019-05-05T01:29:47.285Z,1.64
2019-05-05T01:32:19.828Z,1.74
2019-05-05T01:34:47.342Z,1.82
2019-05-05T01:37:22.398Z,1.95
2019-05-05T01:39:59.112Z,2.06
2019-05-05T01:42:26.372Z,2.09
2019-05-05T01:44:55.273Z,2.16
2019-05-05T01:47:22.625Z,2.06
2019-05-05T01:49:49.929Z,2.24
2019-05-05T01:52:17.155Z,2.41
2019-05-05T01:54:44.751Z,2.41
2019-05-05T01:57:12.125Z,2.49
2019-05-05T01:59:39.384Z,2.55
2019-05-05T02:02:06.737Z,2.76
2019-05-05T02:04:34.408Z,2.79
2019-05-05T02:07:01.740Z,2.88
2019-05-05T02:09:29.010Z,3.01
2019-05-05T02:11:56.340Z,2.98
2019-05-05T02:14:24.626Z,2.90
2019-05-05T02:16:54.415Z,2.64
2019-05-05T02:19:21.406Z,2.66
2019-05-05T02:21:48.664Z,2.76
2019-05-05T02:24:15.920Z,2.63
2019-05-05T02:26:45.423Z,2.53
2019-05-05T02:29:37.615Z,2.50
2019-05-05T02:32:19.669Z,2.38
2019-05-05T02:34:52.168Z,2.34
2019-05-05T02:37:19.412Z,2.19
2019-05-05T02:39:57.754Z,2.16
2019-05-05T02:42:16.068Z,2.07
2019-05-05T02:44:45.556Z,2.01
2019-05-05T02:47:21.791Z,2.03
2019-05-05T02:50:04.992Z,1.97
2019-05-05T02:52:34.656Z,1.89
2019-05-05T02:55:04.101Z,1.87
2019-05-05T02:57:31.560Z,1.72
2019-05-05T03:00:06.575Z,1.75
2019-05-05T03:02:35.423Z,1.69
2019-05-05T03:05:04.191Z,1.88
2019-05-05T03:07:34.426Z,1.90
2019-05-05T03:10:03.782Z,2.03
2019-05-05T03:12:34.625Z,2.03
2019-05-05T03:15:04.203Z,2.09
2019-05-05T03:17:33.946Z,1.98
2019-05-05T03:20:01.480Z,2.03
2019-05-05T03:22:28.870Z,2.16
2019-05-05T03:24:56.115Z,2.26
2019-05-05T03:27:23.812Z,2.39
2019-05-05T03:29:53.402Z,2.52
2019-05-05T03:32:20.745Z,2.34
2019-05-05T03:34:48.137Z,2.19
2019-05-05T03:37:15.479Z,2.05
2019-05-05T03:39:48.185Z,2.04
2019-05-05T03:42:35.502Z,2.03
2019-05-05T03:45:11.017Z,1.97
2019-05-05T03:47:38.503Z,2.08
2019-05-05T03:50:07.950Z,1.80
2019-05-05T03:52:35.199Z,1.97
2019-05-05T03:55:03.806Z,2.04
2019-05-05T03:57:31.410Z,1.96
2019-05-05T03:59:58.798Z,2.03
2019-05-05T04:02:44.561Z,1.77
2019-05-05T04:05:26.489Z,1.86
2019-05-05T04:07:54.916Z,1.97
2019-05-05T04:10:24.403Z,1.72
2019-05-05T04:12:51.308Z,1.75
2019-05-05T04:15:18.590Z,1.73
2019-05-05T04:17:54.564Z,1.88
2019-05-05T04:20:28.439Z,1.98
2019-05-05T04:22:58.074Z,2.02
2019-05-05T04:25:24.982Z,1.92
2019-05-05T04:27:53.841Z,1.99
2019-05-05T04:30:23.486Z,2.06
2019-05-05T04:32:50.400Z,2.14
2019-05-05T04:35:17.851Z,2.16
2019-05-05T04:37:45.107Z,2.13
2019-05-05T04:40:14.576Z,2.24
2019-05-05T04:42:43.862Z,2.25
2019-05-05T04:45:11.023Z,2.22
2019-05-05T04:47:43.489Z,2.44
2019-05-05T04:50:36.118Z,2.39
2019-05-05T04:53:05.957Z,2.40
2019-05-05T04:55:33.943Z,2.55
2019-05-05T04:58:01.950Z,2.62
2019-05-05T05:00:29.173Z,2.53
2019-05-05T05:03:04.470Z,2.66
2019-05-05T05:05:53.632Z,2.68
2019-05-05T05:08:21.035Z,2.79
2019-05-05T05:10:48.328Z,2.80
2019-05-05T05:13:15.621Z,2.83
2019-05-05T05:15:44.632Z,2.87
2019-05-05T05:18:15.214Z,3.02
2019-05-05T05:20:44.289Z,3.13
2019-05-05T05:23:13.976Z,3.33
2019-05-05T05:25:41.183Z,3.52
2019-05-05T05:28:08.577Z,3.67
2019-05-05T05:30:35.899Z,3.97
2019-05-05T05:33:04.331Z,4.42
2019-05-05T05:35:33.610Z,4.71
2019-05-05T05:38:01.100Z,4.73
2019-05-05T05:40:35.489Z,4.55
2019-05-05T05:43:04.826Z,4.39
2019-05-05T05:45:43.651Z,4.37
2019-05-05T05:48:30.633Z,4.43
2019-05-05T05:51:04.362Z,4.51
2019-05-05T05:53:31.661Z,4.59
2019-05-05T05:55:59.175Z,4.86
2019-05-05T05:58:26.465Z,5.01
2019-05-05T06:00:55.793Z,5.43
2019-05-05T06:03:24.566Z,6.08
2019-05-05T06:05:54.015Z,6.27
2019-05-05T06:08:24.304Z,6.44
2019-05-05T06:10:52.182Z,6.86
2019-05-05T06:13:19.538Z,7.18
2019-05-05T06:15:46.844Z,7.49
2019-05-05T06:18:14.119Z,7.75
2019-05-05T06:20:41.785Z,8.01
2019-05-05T06:23:09.815Z,8.27
2019-05-05T06:25:38.108Z,8.37
2019-05-05T06:28:05.628Z,8.40
2019-05-05T06:30:33.693Z,8.65
2019-05-05T06:33:01.415Z,9.00
2019-05-05T06:35:28.879Z,9.20
2019-05-05T06:37:56.266Z,8.97
2019-05-05T06:40:46.423Z,8.49
2019-05-05T06:43:36.318Z,8.48
2019-05-05T06:46:05.844Z,8.53
2019-05-05T06:48:34.420Z,8.63
2019-05-05T06:51:04.869Z,8.73
2019-05-05T06:53:34.237Z,8.47
2019-05-05T06:56:03.911Z,8.57
2019-05-05T06:58:30.811Z,9.02
2019-05-05T07:00:58.726Z,8.41
2019-05-05T07:03:25.998Z,8.22
2019-05-05T07:05:53.916Z,8.40
2019-05-05T07:08:21.317Z,8.53
2019-05-05T07:10:48.651Z,8.85
2019-05-05T07:13:16.084Z,8.90
2019-05-05T07:15:45.013Z,9.10
2019-05-05T07:18:14.251Z,8.53
2019-05-05T07:20:41.583Z,8.51
2019-05-05T07:23:08.864Z,8.86
2019-05-05T07:25:42.826Z,9.22
2019-05-05T07:28:05.482Z,9.57
2019-05-05T07:30:33.585Z,9.95
2019-05-05T07:33:01.411Z,10.33
2019-05-05T07:35:59.392Z,11.18
2019-05-05T07:38:24.394Z,11.62
2019-05-05T07:40:54.387Z,12.28
2019-05-05T07:43:23.993Z,12.37
2019-05-05T07:45:54.089Z,11.75
2019-05-05T07:48:25.550Z,11.87
2019-05-05T07:51:02.023Z,12.11
2019-05-05T07:53:24.480Z,12.28
2019-05-05T07:55:54.055Z,12.53
2019-05-05T07:58:21.074Z,12.51
2019-05-05T08:00:48.373Z,12.57
2019-05-05T08:03:15.626Z,12.44
2019-05-05T08:05:44.234Z,12.47
2019-05-05T08:08:13.736Z,11.82
2019-05-05T08:10:40.816Z,11.49
2019-05-05T08:13:08.054Z,11.65
2019-05-05T08:15:35.744Z,11.91
2019-05-05T08:18:24.307Z,11.57
2019-05-05T08:20:55.829Z,11.59
2019-05-05T08:23:44.693Z,11.35
2019-05-05T08:26:39.048Z,10.67
2019-05-05T08:29:41.250Z,11.01
2019-05-05T08:32:32.595Z,10.89
2019-05-05T08:35:00.947Z,9.97
2019-05-05T08:37:29.519Z,10.07
2019-05-05T08:39:56.803Z,9.65
2019-05-05T08:42:24.684Z,9.90
2019-05-05T08:44:53.822Z,10.30
2019-05-05T08:47:24.428Z,10.78
2019-05-05T08:49:53.600Z,10.52
2019-05-05T08:52:20.562Z,10.36
2019-05-05T08:54:47.851Z,10.31
2019-05-05T08:57:15.124Z,10.13
2019-05-05T08:59:43.934Z,11.17
2019-05-05T09:02:11.329Z,12.08
2019-05-05T09:04:38.660Z,12.27
2019-05-05T09:07:05.940Z,12.35
2019-05-05T09:09:33.669Z,12.37
2019-05-05T09:12:01.020Z,12.16
2019-05-05T09:14:28.501Z,12.45
2019-05-05T09:16:55.859Z,12.15
2019-05-05T09:19:24.114Z,11.89
2019-05-05T09:21:53.578Z,12.14
2019-05-05T09:24:46.167Z,12.49
2019-05-05T09:27:25.518Z,11.84
2019-05-05T09:29:54.305Z,12.73
2019-05-05T09:32:21.747Z,12.76
2019-05-05T09:34:49.135Z,12.29
2019-05-05T09:37:16.939Z,13.10
2019-05-05T09:39:44.996Z,14.09
2019-05-05T09:42:14.546Z,15.33
2019-05-05T09:44:43.801Z,16.25
2019-05-05T09:47:13.673Z,16.34
2019-05-05T09:49:44.584Z,16.06
2019-05-05T09:52:13.990Z,15.65
2019-05-05T09:54:43.686Z,15.86
2019-05-05T09:57:10.717Z,15.88
2019-05-05T09:59:40.265Z,15.22
2019-05-05T10:02:07.979Z,15.10
2019-05-05T10:04:36.514Z,15.31
2019-05-05T10:07:04.447Z,15.17
2019-05-05T10:09:31.930Z,15.36
2019-05-05T10:11:59.334Z,15.15
2019-05-05T10:14:26.764Z,15.33
2019-05-05T10:16:54.196Z,15.03
2019-05-05T10:19:21.780Z,15.44
2019-05-05T10:21:50.311Z,16.27
2019-05-05T10:24:39.054Z,17.01
2019-05-05T10:27:06.681Z,17.60
2019-05-05T10:29:34.035Z,16.88
2019-05-05T10:32:01.287Z,16.60
2019-05-05T10:34:28.755Z,15.71
2019-05-05T10:36:56.210Z,14.77
2019-05-05T10:39:33.472Z,14.07
2019-05-05T10:42:01.086Z,12.94
2019-05-05T10:44:28.508Z,11.63
2019-05-05T10:46:55.851Z,10.32
2019-05-05T10:49:24.381Z,9.79
2019-05-05T10:51:54.174Z,9.66
2019-05-05T10:54:23.505Z,9.58
2019-05-05T10:56:50.971Z,9.98
2019-05-05T10:59:19.010Z,10.32
2019-05-05T11:01:47.418Z,10.42
2019-05-05T11:04:16.016Z,10.96
2019-05-05T11:06:44.252Z,11.16
2019-05-05T11:09:13.835Z,11.55
2019-05-05T11:11:40.844Z,12.11
2019-05-05T11:14:08.235Z,12.09
2019-05-05T11:16:35.603Z,12.16
2019-05-05T11:19:04.306Z,12.03
2019-05-05T11:21:31.693Z,12.31
2019-05-05T11:23:59.015Z,12.72
2019-05-05T11:26:27.314Z,13.14
2019-05-05T11:28:54.621Z,13.70
2019-05-05T11:31:23.955Z,13.62
2019-05-05T11:34:06.358Z,14.66
2019-05-05T11:36:41.530Z,15.28
2019-05-05T11:39:10.714Z,15.93
2019-05-05T11:41:38.124Z,16.63
2019-05-05T11:44:05.492Z,17.69
2019-05-05T11:46:33.961Z,19.34
2019-05-05T11:49:01.376Z,20.09
2019-05-05T11:51:28.638Z,20.25
2019-05-05T11:53:56.063Z,21.11
2019-05-05T11:56:23.345Z,20.06
2019-05-05T11:58:50.594Z,18.51
2019-05-05T12:01:18.029Z,18.24
2019-05-05T12:03:45.397Z,17.32
2019-05-05T12:06:14.661Z,17.37
2019-05-05T12:08:45.745Z,15.51
2019-05-05T12:11:15.072Z,13.90
2019-05-05T12:13:44.727Z,12.74
2019-05-05T12:16:13.910Z,12.18
2019-05-05T12:18:44.884Z,11.44
2019-05-05T12:21:13.990Z,10.37
2019-05-05T12:23:41.577Z,9.56
2019-05-05T12:26:31.176Z,8.74
2019-05-05T12:29:01.404Z,7.63
2019-05-05T12:31:29.463Z,6.90
2019-05-05T12:33:57.544Z,7.04
2019-05-05T12:36:24.987Z,7.26
2019-05-05T12:38:54.574Z,7.39
2019-05-05T12:41:23.900Z,7.54
2019-05-05T12:43:51.387Z,7.81
2019-05-05T12:46:35.736Z,8.10
2019-05-05T12:49:04.912Z,8.40
2019-05-05T12:51:34.217Z,9.07
2019-05-05T12:54:01.831Z,9.66
2019-05-05T12:56:29.322Z,9.92
2019-05-05T12:58:56.644Z,10.19
2019-05-05T13:01:30.070Z,10.45
2019-05-05T13:04:00.402Z,10.67
2019-05-05T13:06:27.791Z,10.96
2019-05-05T13:08:55.183Z,11.36
2019-05-05T13:11:23.833Z,11.56
2019-05-05T13:13:51.295Z,12.02
2019-05-05T13:16:18.603Z,12.39
2019-05-05T13:18:45.954Z,12.47
2019-05-05T13:21:34.884Z,12.91
2019-05-05T13:24:36.682Z,13.20
2019-05-05T13:27:11.550Z,13.39
2019-05-05T13:29:39.281Z,14.74
2019-05-05T13:32:06.633Z,14.91
2019-05-05T13:34:34.099Z,15.17
2019-05-05T13:37:03.487Z,15.59
2019-05-05T13:39:30.753Z,15.81
2019-05-05T13:41:59.109Z,16.13
2019-05-05T13:44:46.154Z,16.29
2019-05-05T13:47:13.475Z,16.20
2019-05-05T13:49:41.192Z,17.16
2019-05-05T13:52:08.505Z,19.01
2019-05-05T13:54:35.891Z,20.55
2019-05-05T13:57:03.887Z,20.56
2019-05-05T13:59:31.364Z,19.47
2019-05-05T14:01:58.759Z,19.02
2019-05-05T14:04:26.743Z,17.83
2019-05-05T14:06:55.490Z,16.97
2019-05-05T14:09:24.907Z,16.32
2019-05-05T14:11:54.430Z,15.48
2019-05-05T14:14:24.245Z,14.58
2019-05-05T14:16:53.795Z,14.35
2019-05-05T14:19:24.696Z,14.48
2019-05-05T14:21:53.824Z,14.57
2019-05-05T14:24:47.025Z,14.13
2019-05-05T14:27:14.765Z,14.00
2019-05-05T14:30:04.084Z,13.84
2019-05-05T14:32:35.531Z,13.44
2019-05-05T14:35:17.077Z,12.69
2019-05-05T14:37:48.494Z,12.31
2019-05-05T14:40:16.831Z,12.23
2019-05-05T14:42:44.419Z,12.48
2019-05-05T14:45:15.298Z,12.99
2019-05-05T14:47:44.131Z,13.42
2019-05-05T14:50:12.181Z,13.91
2019-05-05T14:52:43.979Z,14.30
2019-05-05T14:55:14.040Z,14.77
2019-05-05T14:57:41.771Z,15.18
2019-05-05T15:00:14.687Z,15.45
2019-05-05T15:02:43.850Z,15.90
2019-05-05T15:05:29.187Z,15.90
2019-05-05T15:08:06.320Z,15.79
2019-05-05T15:11:14.093Z,14.81
2019-05-05T15:13:41.339Z,14.25
2019-05-05T15:16:10.234Z,14.05
2019-05-05T15:18:38.446Z,13.56
2019-05-05T15:21:06.791Z,13.37
2019-05-05T15:23:35.442Z,13.09
2019-05-05T15:26:08.128Z,13.26
2019-05-05T15:28:35.923Z,13.20
2019-05-05T15:31:03.668Z,13.15
2019-05-05T15:33:31.042Z,12.61
2019-05-05T15:35:58.468Z,12.34
2019-05-05T15:38:26.766Z,12.27
2019-05-05T15:40:54.721Z,12.47
2019-05-05T15:43:25.498Z,13.66
2019-05-05T15:45:54.043Z,14.37
2019-05-05T15:48:26.359Z,14.76
2019-05-05T15:50:59.413Z,14.23
2019-05-05T15:53:28.649Z,13.68
2019-05-05T15:55:56.673Z,13.28
2019-05-05T15:58:24.227Z,12.55
2019-05-05T16:00:53.818Z,12.14
2019-05-05T16:03:21.637Z,11.90
2019-05-05T16:05:49.288Z,11.58
2019-05-05T16:08:17.698Z,11.15
2019-05-05T16:10:46.633Z,10.31
2019-05-05T16:13:14.309Z,9.81
2019-05-05T16:16:01.258Z,9.60
2019-05-05T16:18:38.580Z,9.24
2019-05-05T16:21:29.280Z,8.79
2019-05-05T16:24:01.010Z,8.48
2019-05-05T16:26:28.500Z,8.13
2019-05-05T16:28:55.827Z,7.99
2019-05-05T16:31:23.612Z,7.96
2019-05-05T16:33:51.081Z,8.05
2019-05-05T16:36:18.390Z,8.25
2019-05-05T16:38:45.804Z,8.54
2019-05-05T16:41:15.131Z,8.78
2019-05-05T16:43:44.264Z,9.08
2019-05-05T16:46:11.751Z,9.28
2019-05-05T16:48:39.068Z,9.37
2019-05-05T16:51:09.359Z,9.48
2019-05-05T16:53:37.522Z,9.85
2019-05-05T16:56:08.060Z,10.23
2019-05-05T16:58:36.592Z,10.47
2019-05-05T17:01:07.495Z,10.73
2019-05-05T17:03:34.874Z,10.97
2019-05-05T17:06:03.734Z,11.12
2019-05-05T17:08:33.612Z,11.37
2019-05-05T17:11:01.411Z,11.58
2019-05-05T17:13:36.102Z,11.64
2019-05-05T17:16:15.230Z,11.78
2019-05-05T17:19:16.084Z,11.75
2019-05-05T17:22:15.081Z,11.61
2019-05-05T17:24:44.033Z,11.34
2019-05-05T17:27:11.529Z,11.27
2019-05-05T17:29:39.360Z,11.27
2019-05-05T17:32:06.797Z,11.14
2019-05-05T17:34:34.162Z,11.25
2019-05-05T17:37:01.436Z,11.12
2019-05-05T17:39:31.334Z,10.89
2019-05-05T17:42:18.829Z,10.58
2019-05-05T17:44:58.547Z,10.38
2019-05-05T17:47:40.192Z,10.30
2019-05-05T17:50:23.874Z,9.89
2019-05-05T17:53:05.054Z,9.95
2019-05-05T17:55:37.144Z,9.95
2019-05-05T17:58:05.527Z,9.83
2019-05-05T18:00:36.994Z,9.53
2019-05-05T18:03:04.615Z,9.46
2019-05-05T18:05:54.474Z,9.33
2019-05-05T18:08:42.007Z,9.28
2019-05-05T18:11:25.499Z,9.20
2019-05-05T18:13:56.962Z,9.06
2019-05-05T18:16:26.921Z,9.12
2019-05-05T18:18:54.870Z,9.07
2019-05-05T18:21:23.668Z,9.11
2019-05-05T18:23:51.172Z,8.98
2019-05-05T18:26:18.527Z,8.91
2019-05-05T18:28:48.075Z,8.83
2019-05-05T18:31:14.942Z,8.80
2019-05-05T18:33:42.367Z,8.71
2019-05-05T18:36:09.687Z,8.68
2019-05-05T18:38:37.051Z,8.27
2019-05-05T18:41:09.964Z,8.25
2019-05-05T18:43:55.350Z,8.26
2019-05-05T18:46:24.432Z,8.15
2019-05-05T18:48:51.970Z,8.14
2019-05-05T18:51:19.487Z,8.09
2019-05-05T18:53:46.762Z,7.92
2019-05-05T18:56:14.450Z,7.69
2019-05-05T18:58:41.857Z,7.47
2019-05-05T19:01:26.655Z,7.27
2019-05-05T19:04:13.610Z,6.91
2019-05-05T19:07:09.738Z,6.53
2019-05-05T19:09:36.987Z,6.42
2019-05-05T19:12:04.265Z,6.38
2019-05-05T19:14:34.869Z,6.20
2019-05-05T19:17:04.448Z,6.13
2019-05-05T19:19:31.351Z,6.10
2019-05-05T19:22:04.316Z,6.06
2019-05-05T19:24:35.146Z,6.17
2019-05-05T19:27:01.004Z,6.39
2019-05-05T19:29:28.389Z,6.29
2019-05-05T19:31:55.792Z,6.12
2019-05-05T19:34:24.284Z,6.11
2019-05-05T19:36:51.695Z,5.83
2019-05-05T19:39:19.003Z,5.62
2019-05-05T19:41:47.092Z,5.42
2019-05-05T19:44:15.759Z,5.29
2019-05-05T19:46:49.137Z,5.08
2019-05-05T19:49:17.374Z,4.86
2019-05-05T19:51:46.257Z,4.92
2019-05-05T19:54:14.733Z,4.88
2019-05-05T19:56:42.213Z,4.77
2019-05-05T19:59:09.599Z,4.71
2019-05-05T20:01:37.919Z,4.62
2019-05-05T20:04:05.418Z,4.62
2019-05-05T20:06:32.918Z,4.43
2019-05-05T20:09:01.892Z,4.39
2019-05-05T20:11:33.970Z,4.31
2019-05-05T20:14:09.902Z,4.17
2019-05-05T20:16:59.052Z,4.17
2019-05-05T20:19:34.049Z,4.18
2019-05-05T20:22:01.440Z,4.11
2019-05-05T20:25:00.582Z,4.09
2019-05-05T20:27:49.819Z,4.08
2019-05-05T20:30:18.005Z,3.92
2019-05-05T20:38:56.762Z,3.79
2019-05-05T20:41:25.132Z,3.76
2019-05-05T20:47:01.595Z,3.64
2019-05-05T20:49:44.237Z,3.69
2019-05-05T20:52:15.902Z,3.59
